createdAt,value
2023-01-17T00:00:06.637Z,45.90
2023-01-17T00:02:33.619Z,44.80
2023-01-17T00:05:18.961Z,42.78
2023-01-17T00:08:04.039Z,41.78
2023-01-17T00:10:30.900Z,41.63
2023-01-17T00:13:02.140Z,42.00
2023-01-17T00:15:29.822Z,44.28
2023-01-17T00:17:56.805Z,42.47
2023-01-17T00:20:44.128Z,38.63
2023-01-17T00:23:37.465Z,37.80
2023-01-17T00:26:14.939Z,35.90
2023-01-17T00:28:42.833Z,39.83
2023-01-17T00:31:10.576Z,40.97
2023-01-17T00:33:37.356Z,38.72
2023-01-17T00:36:04.692Z,35.22
2023-01-17T00:38:33.123Z,35.63
2023-01-17T00:41:12.981Z,35.92
2023-01-17T00:43:58.346Z,35.97
2023-01-17T00:46:43.621Z,35.22
2023-01-17T00:49:28.679Z,36.50
2023-01-17T00:52:13.908Z,35.40
2023-01-17T00:54:58.989Z,35.35
2023-01-17T00:57:44.243Z,35.20
2023-01-17T01:00:30.105Z,31.05
2023-01-17T01:03:15.589Z,29.13
2023-01-17T01:06:00.885Z,34.87
2023-01-17T01:08:47.653Z,32.20
2023-01-17T01:11:34.725Z,29.83
2023-01-17T01:14:20.462Z,31.95
2023-01-17T01:17:05.933Z,33.55
2023-01-17T01:19:51.686Z,35.50
2023-01-17T01:22:36.764Z,30.40
2023-01-17T01:25:22.382Z,29.80
2023-01-17T01:28:07.729Z,31.33
2023-01-17T01:30:52.843Z,31.25
2023-01-17T01:33:19.680Z,30.40
2023-01-17T01:35:54.019Z,32.55
2023-01-17T01:38:22.711Z,30.42
2023-01-17T01:40:51.197Z,30.85
2023-01-17T01:43:20.518Z,32.88
2023-01-17T01:45:54.799Z,30.27
2023-01-17T01:48:34.739Z,27.63
2023-01-17T01:51:06.426Z,29.95
2023-01-17T01:53:33.942Z,29.55
2023-01-17T01:56:00.820Z,32.17
2023-01-17T01:58:28.199Z,28.60
2023-01-17T02:00:55.066Z,32.15
2023-01-17T02:03:26.362Z,30.75
2023-01-17T02:05:53.205Z,29.45
2023-01-17T02:08:21.799Z,29.83
2023-01-17T02:10:48.666Z,31.17
2023-01-17T02:13:16.320Z,28.25
2023-01-17T02:15:49.359Z,29.45
2023-01-17T02:18:30.903Z,28.98
2023-01-17T02:21:18.879Z,28.60
2023-01-17T02:23:51.540Z,29.50
2023-01-17T02:26:18.281Z,27.63
2023-01-17T02:29:05.926Z,27.60
2023-01-17T02:31:33.466Z,30.95
2023-01-17T02:34:32.819Z,27.17
2023-01-17T02:37:34.951Z,26.13
2023-01-17T02:40:18.005Z,28.55
2023-01-17T02:42:47.206Z,28.67
2023-01-17T02:45:18.245Z,25.85
2023-01-17T02:47:45.391Z,26.13
2023-01-17T02:50:20.226Z,27.60
2023-01-17T02:53:12.645Z,26.83
2023-01-17T02:55:57.698Z,28.85
2023-01-17T02:58:34.785Z,26.85
2023-01-17T03:01:26.250Z,24.88
2023-01-17T03:04:11.649Z,24.63
2023-01-17T03:06:45.886Z,26.20
2023-01-17T03:09:14.481Z,27.75
2023-01-17T03:11:42.019Z,28.90
2023-01-17T03:14:08.811Z,29.48
2023-01-17T03:16:35.680Z,26.27
2023-01-17T03:19:02.640Z,26.15
2023-01-17T03:21:29.462Z,28.33
2023-01-17T03:23:56.239Z,27.90
2023-01-17T03:26:23.063Z,26.98
2023-01-17T03:28:50.782Z,26.47
2023-01-17T03:31:17.748Z,26.58
2023-01-17T03:33:44.540Z,26.63
2023-01-17T03:36:12.136Z,25.60
2023-01-17T03:38:39.057Z,25.67
2023-01-17T03:41:06.189Z,26.33
2023-01-17T03:43:32.973Z,27.40
2023-01-17T03:46:03.840Z,26.20
2023-01-17T03:48:30.679Z,24.83
2023-01-17T03:50:57.519Z,27.25
2023-01-17T03:53:24.422Z,23.53
2023-01-17T03:55:51.240Z,24.38
2023-01-17T03:58:18.065Z,26.02
2023-01-17T04:00:44.860Z,24.25
2023-01-17T04:03:11.723Z,25.50
2023-01-17T04:05:38.520Z,23.80
2023-01-17T04:08:07.310Z,23.98
2023-01-17T04:10:34.243Z,24.38
2023-01-17T04:13:01.061Z,21.98
2023-01-17T04:15:27.861Z,20.77
2023-01-17T04:17:54.685Z,23.33
2023-01-17T04:20:40.503Z,19.95
2023-01-17T04:23:07.367Z,23.35
2023-01-17T04:25:34.180Z,21.20
2023-01-17T04:28:01.396Z,19.63
2023-01-17T04:30:28.460Z,20.33
2023-01-17T04:32:55.367Z,25.65
2023-01-17T04:35:22.169Z,23.00
2023-01-17T04:37:48.992Z,23.08
2023-01-17T04:40:15.980Z,20.00
2023-01-17T04:42:44.927Z,19.37
2023-01-17T04:45:12.184Z,19.48
2023-01-17T04:47:38.978Z,19.75
2023-01-17T04:50:06.128Z,20.80
2023-01-17T04:52:32.942Z,20.15
2023-01-17T04:54:59.799Z,20.20
2023-01-17T04:57:26.641Z,19.17
2023-01-17T04:59:53.774Z,20.75
2023-01-17T05:02:20.570Z,20.38
2023-01-17T05:04:47.432Z,24.02
2023-01-17T05:07:14.263Z,21.23
2023-01-17T05:09:41.139Z,20.30
2023-01-17T05:12:08.007Z,20.10
2023-01-17T05:14:34.859Z,23.00
2023-01-17T05:17:03.176Z,19.73
2023-01-17T05:19:30.073Z,21.73
2023-01-17T05:22:04.032Z,18.38
2023-01-17T05:24:31.669Z,20.75
2023-01-17T05:27:03.296Z,18.33
2023-01-17T05:29:30.856Z,20.05
2023-01-17T05:31:57.837Z,19.60
2023-01-17T05:34:24.859Z,17.55
2023-01-17T05:36:51.771Z,19.38
2023-01-17T05:39:18.643Z,17.15
2023-01-17T05:41:45.856Z,18.58
2023-01-17T05:44:12.745Z,19.13
2023-01-17T05:46:39.591Z,20.25
2023-01-17T05:49:06.399Z,19.20
2023-01-17T05:51:33.340Z,18.73
2023-01-17T05:54:00.118Z,20.48
2023-01-17T05:56:26.952Z,16.90
2023-01-17T05:58:53.751Z,16.75
2023-01-17T06:01:20.627Z,18.23
2023-01-17T06:03:47.424Z,19.08
2023-01-17T06:06:14.327Z,20.65
2023-01-17T06:08:41.440Z,21.70
2023-01-17T06:11:08.238Z,18.67
2023-01-17T06:13:35.141Z,19.95
2023-01-17T06:16:04.140Z,19.63
2023-01-17T06:18:31.234Z,18.05
2023-01-17T06:20:58.061Z,17.83
2023-01-17T06:23:24.990Z,18.60
2023-01-17T06:25:51.963Z,19.77
2023-01-17T06:28:20.301Z,19.23
2023-01-17T06:30:47.310Z,21.02
2023-01-17T06:33:14.165Z,18.20
2023-01-17T06:35:46.907Z,18.05
2023-01-17T06:38:13.672Z,19.63
2023-01-17T06:40:40.484Z,22.63
2023-01-17T06:43:07.259Z,19.77
2023-01-17T06:45:34.443Z,18.67
2023-01-17T06:48:01.880Z,17.63
2023-01-17T06:50:28.687Z,18.60
2023-01-17T06:53:00.182Z,18.98
2023-01-17T06:55:30.728Z,18.77
2023-01-17T06:57:59.560Z,19.73
2023-01-17T07:00:31.027Z,17.83
2023-01-17T07:02:58.230Z,20.35
2023-01-17T07:05:25.143Z,22.40
2023-01-17T07:07:52.065Z,21.40
2023-01-17T07:10:18.888Z,19.20
2023-01-17T07:12:45.828Z,19.38
2023-01-17T07:15:12.806Z,18.77
2023-01-17T07:17:39.623Z,20.70
2023-01-17T07:20:07.022Z,19.85
2023-01-17T07:22:34.101Z,20.77
2023-01-17T07:25:00.965Z,24.00
2023-01-17T07:27:30.485Z,19.52
2023-01-17T07:29:58.042Z,21.42
2023-01-17T07:32:26.832Z,21.42
2023-01-17T07:34:54.608Z,24.57
2023-01-17T07:37:21.467Z,20.95
2023-01-17T07:39:48.270Z,21.65
2023-01-17T07:42:15.305Z,23.55
2023-01-17T07:44:44.131Z,25.95
2023-01-17T07:47:11.524Z,26.43
2023-01-17T07:49:38.353Z,26.33
2023-01-17T07:52:08.262Z,25.13
2023-01-17T07:54:35.264Z,26.88
2023-01-17T07:57:02.272Z,21.85
2023-01-17T07:59:29.217Z,22.70
2023-01-17T08:01:56.161Z,26.55
2023-01-17T08:04:26.291Z,26.80
2023-01-17T08:06:55.092Z,28.40
2023-01-17T08:09:22.039Z,27.92
2023-01-17T08:11:48.903Z,27.70
2023-01-17T08:14:15.740Z,27.70
2023-01-17T08:16:42.601Z,28.08
2023-01-17T08:19:10.310Z,26.42
2023-01-17T08:21:37.162Z,31.02
2023-01-17T08:24:04.284Z,26.93
2023-01-17T08:26:31.099Z,32.05
2023-01-17T08:29:00.541Z,27.55
2023-01-17T08:31:28.706Z,28.60
2023-01-17T08:33:56.942Z,26.30
2023-01-17T08:36:25.916Z,26.07
2023-01-17T08:38:53.029Z,26.88
2023-01-17T08:41:21.071Z,28.33
2023-01-17T08:43:51.465Z,27.58
2023-01-17T08:46:18.553Z,28.77
2023-01-17T08:48:45.485Z,27.53
2023-01-17T08:51:12.321Z,28.23
2023-01-17T08:53:39.242Z,29.13
2023-01-17T08:56:06.506Z,27.15
2023-01-17T08:58:34.165Z,28.80
2023-01-17T09:01:05.541Z,30.40
2023-01-17T09:03:32.996Z,31.33
2023-01-17T09:06:06.196Z,32.08
2023-01-17T09:08:33.361Z,32.13
2023-01-17T09:11:13.048Z,32.35
2023-01-17T09:13:40.118Z,31.60
2023-01-17T09:16:07.465Z,30.90
2023-01-17T09:18:35.456Z,32.50
2023-01-17T09:21:15.806Z,31.50
2023-01-17T09:23:43.033Z,28.25
2023-01-17T09:26:41.204Z,33.00
2023-01-17T09:29:08.010Z,33.40
2023-01-17T09:31:34.948Z,32.08
2023-01-17T09:34:01.800Z,31.63
2023-01-17T09:36:29.218Z,31.00
2023-01-17T09:38:59.857Z,31.60
2023-01-17T09:41:57.045Z,31.05
2023-01-17T09:44:24.328Z,31.40
2023-01-17T09:46:52.538Z,30.92
2023-01-17T09:49:41.885Z,30.90
2023-01-17T09:52:10.019Z,31.10
2023-01-17T09:54:41.570Z,31.08
2023-01-17T09:57:30.073Z,30.58
2023-01-17T10:00:33.901Z,28.95
2023-01-17T10:03:25.266Z,27.42
2023-01-17T10:06:16.725Z,31.63
2023-01-17T10:08:55.066Z,31.40
2023-01-17T10:11:32.901Z,29.00
2023-01-17T10:14:18.281Z,31.38
2023-01-17T10:17:06.423Z,30.35
2023-01-17T10:19:56.642Z,33.67
2023-01-17T10:22:57.291Z,30.38
2023-01-17T10:25:36.142Z,31.40
2023-01-17T10:28:06.765Z,31.75
2023-01-17T10:30:43.517Z,30.15
2023-01-17T10:33:24.583Z,33.57
2023-01-17T10:35:59.133Z,32.03
2023-01-17T10:38:30.165Z,30.25
2023-01-17T10:41:21.110Z,30.27
2023-01-17T10:44:25.329Z,29.33
2023-01-17T10:47:16.363Z,31.77
2023-01-17T10:49:45.309Z,27.92
2023-01-17T10:52:13.486Z,28.45
2023-01-17T10:54:50.193Z,29.35
2023-01-17T10:57:21.048Z,30.38
2023-01-17T10:59:47.967Z,31.20
2023-01-17T11:02:26.511Z,29.85
2023-01-17T11:04:54.787Z,32.17
2023-01-17T11:07:26.107Z,29.98
2023-01-17T11:09:54.641Z,32.67
2023-01-17T11:12:41.245Z,33.20
2023-01-17T11:15:10.940Z,28.77
2023-01-17T11:17:48.984Z,30.10
2023-01-17T11:20:20.185Z,30.30
2023-01-17T11:23:19.040Z,30.00
2023-01-17T11:26:06.101Z,30.70
2023-01-17T11:28:34.649Z,30.88
2023-01-17T11:31:25.301Z,29.67
2023-01-17T11:34:07.965Z,28.42
2023-01-17T11:36:34.962Z,29.38
2023-01-17T11:39:23.010Z,28.17
2023-01-17T11:41:51.104Z,27.05
2023-01-17T11:44:26.571Z,27.63
2023-01-17T11:47:19.049Z,28.67
2023-01-17T11:49:49.536Z,26.77
2023-01-17T11:52:22.723Z,27.83
2023-01-17T11:54:50.034Z,25.13
2023-01-17T11:57:35.354Z,25.90
2023-01-17T12:00:23.864Z,29.17
2023-01-17T12:03:15.355Z,26.17
2023-01-17T12:06:26.661Z,25.20
2023-01-17T12:09:07.702Z,25.35
2023-01-17T12:12:30.639Z,25.58
2023-01-17T12:15:03.177Z,27.00
2023-01-17T12:18:09.914Z,24.35
2023-01-17T12:21:07.125Z,25.30
2023-01-17T12:23:47.523Z,25.83
2023-01-17T12:26:19.639Z,24.88
2023-01-17T12:29:23.901Z,25.38
2023-01-17T12:32:45.258Z,26.55
2023-01-17T12:35:27.044Z,23.60
2023-01-17T12:38:05.273Z,25.15
2023-01-17T12:40:46.777Z,23.40
2023-01-17T12:43:24.511Z,24.45
2023-01-17T12:45:51.534Z,24.17
2023-01-17T12:48:22.520Z,24.83
2023-01-17T12:51:14.439Z,24.10
2023-01-17T12:53:47.806Z,26.85
2023-01-17T12:56:24.389Z,27.15
2023-01-17T12:59:21.960Z,27.58
2023-01-17T13:01:58.387Z,25.73
2023-01-17T13:04:58.527Z,23.25
2023-01-17T13:07:33.062Z,23.02
2023-01-17T13:10:22.922Z,21.13
2023-01-17T13:12:50.319Z,22.60
2023-01-17T13:15:23.503Z,24.50
2023-01-17T13:17:51.158Z,24.25
2023-01-17T13:20:40.861Z,21.33
2023-01-17T13:23:23.068Z,25.17
2023-01-17T13:25:50.631Z,22.50
2023-01-17T13:28:28.342Z,21.20
2023-01-17T13:31:17.979Z,23.10
2023-01-17T13:34:24.674Z,24.08
2023-01-17T13:37:28.781Z,21.38
2023-01-17T13:40:01.497Z,23.17
2023-01-17T13:43:00.512Z,21.33
2023-01-17T13:45:36.651Z,19.88
2023-01-17T13:48:12.410Z,19.88
2023-01-17T13:50:41.793Z,21.73
2023-01-17T13:53:39.496Z,19.48
2023-01-17T13:56:28.949Z,20.47
2023-01-17T13:59:05.703Z,21.48
2023-01-17T14:01:34.882Z,21.92
2023-01-17T14:04:03.042Z,19.73
2023-01-17T14:06:46.858Z,22.35
2023-01-17T14:09:28.450Z,19.50
2023-01-17T14:12:05.389Z,20.42
2023-01-17T14:14:41.092Z,20.90
2023-01-17T14:17:23.210Z,20.05
2023-01-17T14:19:51.527Z,20.35
2023-01-17T14:22:21.364Z,21.60
2023-01-17T14:25:15.027Z,21.27
2023-01-17T14:27:48.783Z,20.77
2023-01-17T14:30:27.690Z,19.80
2023-01-17T14:33:04.731Z,19.08
2023-01-17T14:35:31.446Z,17.27
2023-01-17T14:37:59.883Z,18.10
2023-01-17T14:40:30.550Z,18.63
2023-01-17T14:43:03.898Z,17.92
2023-01-17T14:45:31.959Z,19.00
2023-01-17T14:47:59.742Z,17.30
2023-01-17T14:50:31.561Z,16.80
2023-01-17T14:53:18.320Z,19.50
2023-01-17T14:55:48.031Z,17.77
2023-01-17T14:58:26.037Z,16.58
2023-01-17T15:01:13.309Z,19.13
2023-01-17T15:03:49.813Z,16.90
2023-01-17T15:06:29.167Z,16.80
2023-01-17T15:08:56.207Z,18.08
2023-01-17T15:11:25.826Z,18.02
2023-01-17T15:13:55.010Z,15.93
2023-01-17T15:16:24.501Z,15.73
2023-01-17T15:18:52.467Z,17.55
2023-01-17T15:21:21.263Z,15.15
2023-01-17T15:23:55.759Z,13.90
2023-01-17T15:26:27.406Z,13.40
2023-01-17T15:29:05.684Z,14.65
2023-01-17T15:31:52.437Z,13.88
2023-01-17T15:34:27.875Z,13.55
2023-01-17T15:36:57.513Z,13.73
2023-01-17T15:39:25.740Z,13.13
2023-01-17T15:41:53.523Z,15.02
2023-01-17T15:44:47.596Z,14.43
2023-01-17T15:47:29.323Z,14.98
2023-01-17T15:49:56.199Z,12.82
2023-01-17T15:52:22.997Z,13.37
2023-01-17T15:54:52.905Z,14.38
2023-01-17T15:57:38.953Z,12.80
2023-01-17T16:00:20.422Z,14.73
2023-01-17T16:02:50.116Z,13.95
2023-01-17T16:05:42.101Z,15.27
2023-01-17T16:08:08.819Z,14.52
2023-01-17T16:10:37.221Z,14.30
2023-01-17T16:13:05.222Z,14.40
2023-01-17T16:15:32.072Z,13.38
2023-01-17T16:18:10.106Z,12.00
2023-01-17T16:20:44.687Z,13.20
2023-01-17T16:23:11.828Z,15.18
2023-01-17T16:25:38.927Z,14.00
2023-01-17T16:28:05.980Z,13.85
2023-01-17T16:30:33.081Z,13.77
2023-01-17T16:32:59.974Z,13.93
2023-01-17T16:35:31.380Z,13.85
2023-01-17T16:37:59.726Z,15.07
2023-01-17T16:40:28.633Z,13.55
2023-01-17T16:42:56.112Z,12.93
2023-01-17T16:45:24.939Z,13.45
2023-01-17T16:47:52.602Z,14.80
2023-01-17T16:50:23.909Z,17.77
2023-01-17T16:52:51.478Z,13.50
2023-01-17T16:55:18.752Z,15.53
2023-01-17T16:57:45.619Z,13.80
2023-01-17T17:00:13.100Z,14.70
2023-01-17T17:02:40.866Z,17.17
2023-01-17T17:05:08.184Z,19.17
2023-01-17T17:07:37.631Z,15.77
2023-01-17T17:10:04.899Z,17.15
2023-01-17T17:12:32.478Z,16.67
2023-01-17T17:14:59.323Z,15.40
2023-01-17T17:17:26.227Z,16.90
2023-01-17T17:19:53.104Z,18.73
2023-01-17T17:22:19.946Z,16.40
2023-01-17T17:24:46.756Z,19.98
2023-01-17T17:27:13.587Z,22.35
2023-01-17T17:29:41.348Z,19.58
2023-01-17T17:32:11.579Z,20.37
2023-01-17T17:34:38.786Z,21.25
2023-01-17T17:37:05.586Z,17.27
2023-01-17T17:39:33.839Z,20.27
2023-01-17T17:42:01.060Z,17.95
2023-01-17T17:44:27.925Z,17.70
2023-01-17T17:46:54.747Z,17.27
2023-01-17T17:49:22.821Z,18.35
2023-01-17T17:51:49.784Z,16.15
2023-01-17T17:54:17.328Z,14.10
2023-01-17T17:56:48.352Z,16.90
2023-01-17T17:59:18.341Z,13.80
2023-01-17T18:01:45.930Z,14.68
2023-01-17T18:04:13.522Z,15.50
2023-01-17T18:06:40.580Z,14.35
2023-01-17T18:09:08.423Z,14.33
2023-01-17T18:11:35.936Z,13.43
2023-01-17T18:14:03.640Z,12.85
2023-01-17T18:16:37.621Z,12.15
2023-01-17T18:19:04.643Z,12.57
2023-01-17T18:21:33.158Z,10.13
2023-01-17T18:24:09.113Z,9.55
2023-01-17T18:26:37.963Z,9.88
2023-01-17T18:29:06.333Z,8.77
2023-01-17T18:31:33.692Z,9.18
2023-01-17T18:34:04.430Z,7.93
2023-01-17T18:36:31.428Z,9.82
2023-01-17T18:38:58.383Z,10.85
2023-01-17T18:41:27.218Z,9.38
2023-01-17T18:43:56.128Z,8.50
2023-01-17T18:46:23.200Z,7.77
2023-01-17T18:48:50.084Z,7.35
2023-01-17T18:51:18.462Z,8.98
2023-01-17T18:53:45.880Z,8.45
2023-01-17T18:56:18.203Z,7.45
2023-01-17T18:58:45.821Z,8.20
2023-01-17T19:01:26.103Z,7.93
2023-01-17T19:03:54.450Z,8.32
2023-01-17T19:06:25.842Z,9.13
2023-01-17T19:08:52.847Z,10.65
2023-01-17T19:11:23.243Z,8.87
2023-01-17T19:13:50.438Z,11.27
2023-01-17T19:16:20.096Z,11.32
2023-01-17T19:18:47.410Z,11.18
2023-01-17T19:21:15.859Z,8.55
2023-01-17T19:23:45.783Z,8.40
2023-01-17T19:26:13.520Z,8.95
2023-01-17T19:28:41.108Z,9.27
2023-01-17T19:31:09.452Z,8.20
2023-01-17T19:33:37.543Z,9.32
2023-01-17T19:36:06.222Z,8.20
2023-01-17T19:38:34.281Z,8.80
2023-01-17T19:41:09.245Z,9.15
2023-01-17T19:43:36.117Z,10.07
2023-01-17T19:46:03.024Z,8.77
2023-01-17T19:48:30.386Z,8.53
2023-01-17T19:51:09.957Z,8.50
2023-01-17T19:53:37.321Z,7.93
2023-01-17T19:56:06.204Z,8.52
2023-01-17T19:58:33.163Z,8.68
2023-01-17T20:01:17.255Z,9.03
2023-01-17T20:03:45.100Z,7.57
2023-01-17T20:06:20.105Z,9.27
2023-01-17T20:08:47.027Z,9.02
2023-01-17T20:11:18.640Z,7.72
2023-01-17T20:13:46.391Z,7.90
2023-01-17T20:16:16.653Z,7.38
2023-01-17T20:18:43.676Z,9.80
2023-01-17T20:21:23.579Z,8.00
2023-01-17T20:23:51.204Z,7.28
2023-01-17T20:26:34.425Z,7.23
2023-01-17T20:29:02.817Z,8.63
2023-01-17T20:31:30.193Z,9.18
2023-01-17T20:33:56.990Z,8.75
2023-01-17T20:36:25.767Z,8.02
2023-01-17T20:38:53.677Z,8.77
2023-01-17T20:41:24.088Z,9.05
2023-01-17T20:43:52.632Z,8.13
2023-01-17T20:46:20.172Z,8.73
2023-01-17T20:48:48.262Z,9.07
2023-01-17T20:51:15.243Z,11.10
2023-01-17T20:53:42.466Z,8.27
2023-01-17T20:56:09.608Z,8.85
2023-01-17T20:58:36.424Z,8.98
2023-01-17T21:01:03.375Z,8.48
2023-01-17T21:03:30.362Z,10.48
2023-01-17T21:06:05.641Z,9.07
2023-01-17T21:08:33.809Z,9.82
2023-01-17T21:11:00.801Z,10.80
2023-01-17T21:13:27.657Z,10.23
2023-01-17T21:15:54.582Z,9.88
2023-01-17T21:18:22.486Z,8.40
2023-01-17T21:20:49.556Z,9.35
2023-01-17T21:23:20.239Z,8.25
2023-01-17T21:25:55.522Z,11.00
2023-01-17T21:28:23.172Z,10.13
2023-01-17T21:30:50.063Z,9.18
2023-01-17T21:33:17.604Z,8.00
2023-01-17T21:35:44.540Z,11.57
2023-01-17T21:38:12.684Z,8.57
2023-01-17T21:40:39.730Z,10.60
2023-01-17T21:43:06.558Z,10.50
2023-01-17T21:45:39.678Z,11.80
2023-01-17T21:48:07.143Z,9.80
2023-01-17T21:50:34.316Z,10.98
2023-01-17T21:53:01.292Z,9.63
2023-01-17T21:55:46.480Z,9.15
2023-01-17T21:58:32.734Z,8.80
2023-01-17T22:01:09.053Z,8.52
2023-01-17T22:03:36.362Z,8.73
2023-01-17T22:06:05.027Z,10.00
2023-01-17T22:08:35.469Z,8.98
2023-01-17T22:11:07.368Z,10.30
2023-01-17T22:13:34.738Z,10.15
2023-01-17T22:16:03.151Z,10.27
2023-01-17T22:18:30.182Z,10.63
2023-01-17T22:20:57.223Z,11.85
2023-01-17T22:23:24.099Z,11.07
2023-01-17T22:25:50.862Z,8.70
2023-01-17T22:28:17.867Z,10.90
2023-01-17T22:30:44.737Z,10.05
2023-01-17T22:33:11.561Z,11.70
2023-01-17T22:35:38.511Z,10.40
2023-01-17T22:38:05.581Z,9.32
2023-01-17T22:40:32.842Z,10.75
2023-01-17T22:42:59.981Z,10.32
2023-01-17T22:45:27.639Z,11.00
2023-01-17T22:47:54.461Z,11.02
2023-01-17T22:50:23.480Z,10.70
2023-01-17T22:52:50.422Z,11.63
2023-01-17T22:55:18.352Z,10.00
2023-01-17T22:57:46.806Z,12.18
2023-01-17T23:00:14.853Z,11.98
2023-01-17T23:02:42.082Z,11.85
2023-01-17T23:05:12.265Z,9.38
2023-01-17T23:07:43.791Z,10.00
2023-01-17T23:10:12.486Z,10.88
2023-01-17T23:12:39.684Z,10.85
2023-01-17T23:15:25.361Z,10.93
2023-01-17T23:18:10.520Z,10.43
2023-01-17T23:20:37.322Z,9.18
2023-01-17T23:23:04.120Z,10.20
2023-01-17T23:25:30.926Z,9.38
2023-01-17T23:28:15.962Z,11.32
2023-01-17T23:30:43.112Z,10.20
2023-01-17T23:33:14.357Z,11.98
2023-01-17T23:35:42.697Z,9.43
2023-01-17T23:38:29.795Z,11.18
2023-01-17T23:41:22.196Z,10.70
2023-01-17T23:43:56.170Z,12.70
2023-01-17T23:46:24.123Z,9.70
2023-01-17T23:48:51.043Z,11.95
2023-01-17T23:51:17.880Z,9.73
2023-01-17T23:53:44.660Z,11.55
2023-01-17T23:56:18.653Z,11.02
2023-01-17T23:58:45.444Z,12.75
